createdAt,value
2018-08-31T00:00:06.034Z,0.00
2018-08-31T00:03:04.031Z,0.00
2018-08-31T00:06:04.003Z,0.00
2018-08-31T00:09:03.926Z,0.00
2018-08-31T00:12:05.554Z,0.00
2018-08-31T00:15:03.871Z,0.00
2018-08-31T00:18:05.522Z,0.00
2018-08-31T00:21:03.794Z,0.00
2018-08-31T00:24:03.802Z,0.00
2018-08-31T00:27:03.738Z,0.00
2018-08-31T00:30:05.531Z,0.00
2018-08-31T00:33:03.670Z,0.00
2018-08-31T00:36:04.675Z,0.00
2018-08-31T00:39:03.595Z,0.00
2018-08-31T00:42:05.512Z,0.00
2018-08-31T00:45:03.525Z,0.00
2018-08-31T00:48:05.028Z,0.00
2018-08-31T00:51:03.456Z,0.00
2018-08-31T00:54:03.429Z,0.00
2018-08-31T00:57:03.724Z,0.00
2018-08-31T01:00:04.383Z,0.00
2018-08-31T01:03:03.327Z,0.00
2018-08-31T01:06:05.041Z,0.00
2018-08-31T01:09:03.253Z,0.00
2018-08-31T01:12:03.211Z,0.00
2018-08-31T01:15:03.189Z,0.00
2018-08-31T01:18:05.023Z,0.00
2018-08-31T01:21:03.115Z,0.00
2018-08-31T01:24:03.089Z,0.00
2018-08-31T01:27:03.051Z,0.00
2018-08-31T01:30:03.059Z,0.00
2018-08-31T01:33:02.979Z,0.00
2018-08-31T01:36:02.957Z,0.00
2018-08-31T01:39:02.936Z,0.00
2018-08-31T01:42:04.521Z,0.00
2018-08-31T01:45:02.841Z,0.00
2018-08-31T01:48:02.804Z,0.00
2018-08-31T01:51:02.753Z,0.00
2018-08-31T01:54:02.762Z,0.00
2018-08-31T01:57:02.740Z,0.00
2018-08-31T02:00:04.521Z,0.00
2018-08-31T02:03:02.654Z,0.00
2018-08-31T02:06:02.655Z,0.00
2018-08-31T02:09:02.581Z,0.00
2018-08-31T02:12:02.563Z,0.00
2018-08-31T02:15:02.491Z,0.00
2018-08-31T02:18:02.518Z,0.00
2018-08-31T02:21:02.449Z,0.00
2018-08-31T02:24:02.462Z,0.00
2018-08-31T02:27:02.365Z,0.00
2018-08-31T02:30:02.367Z,0.00
2018-08-31T02:33:02.294Z,0.00
2018-08-31T02:36:02.303Z,0.00
2018-08-31T02:39:02.287Z,0.00
2018-08-31T02:42:02.223Z,0.00
2018-08-31T02:45:02.177Z,0.00
2018-08-31T02:48:02.153Z,0.00
2018-08-31T02:51:02.102Z,0.00
2018-08-31T02:54:02.066Z,0.00
2018-08-31T02:57:02.067Z,0.00
2018-08-31T03:00:03.517Z,0.00
2018-08-31T03:03:01.951Z,0.00
2018-08-31T03:06:01.940Z,0.00
2018-08-31T03:09:01.897Z,0.00
2018-08-31T03:12:03.516Z,0.00
2018-08-31T03:15:01.806Z,0.00
2018-08-31T03:18:01.824Z,0.00
2018-08-31T03:21:01.745Z,0.00
2018-08-31T03:24:01.747Z,0.00
2018-08-31T03:27:01.698Z,0.00
2018-08-31T03:30:01.697Z,0.00
2018-08-31T03:33:01.628Z,0.00
2018-08-31T03:36:01.598Z,0.00
2018-08-31T03:39:01.534Z,0.00
2018-08-31T03:42:03.571Z,0.00
2018-08-31T03:45:01.474Z,0.00
2018-08-31T03:48:01.454Z,0.00
2018-08-31T03:51:01.399Z,0.00
2018-08-31T03:54:01.431Z,0.00
2018-08-31T03:57:01.367Z,0.00
2018-08-31T04:00:03.007Z,0.00
2018-08-31T04:03:01.263Z,0.00
2018-08-31T04:06:02.994Z,0.00
2018-08-31T04:09:01.187Z,0.00
2018-08-31T04:12:03.037Z,0.00
2018-08-31T04:15:01.221Z,0.00
2018-08-31T04:18:01.119Z,0.00
2018-08-31T04:21:01.084Z,0.00
2018-08-31T04:24:01.142Z,0.00
2018-08-31T04:27:01.027Z,0.00
2018-08-31T04:30:00.969Z,0.00
2018-08-31T04:33:00.946Z,0.00
2018-08-31T04:36:00.963Z,0.00
2018-08-31T04:39:00.878Z,0.00
2018-08-31T04:42:00.901Z,5.62
2018-08-31T04:45:00.800Z,5.62
2018-08-31T04:48:00.819Z,5.62
2018-08-31T04:51:00.735Z,11.25
2018-08-31T04:54:02.518Z,16.88
2018-08-31T04:57:01.673Z,16.88
2018-08-31T05:00:02.469Z,22.50
2018-08-31T05:03:00.631Z,28.12
2018-08-31T05:06:00.553Z,33.75
2018-08-31T05:09:00.527Z,39.38
2018-08-31T05:12:00.549Z,45.00
2018-08-31T05:15:00.467Z,50.62
2018-08-31T05:18:00.474Z,56.25
2018-08-31T05:21:00.387Z,56.25
2018-08-31T05:24:00.378Z,56.25
2018-08-31T05:27:00.312Z,67.50
2018-08-31T05:30:00.304Z,73.12
2018-08-31T05:33:00.247Z,84.38
2018-08-31T05:36:00.270Z,90.00
2018-08-31T05:39:00.185Z,101.25
2018-08-31T05:42:00.170Z,106.88
2018-08-31T05:45:00.115Z,118.12
2018-08-31T05:48:00.141Z,129.38
2018-08-31T05:51:00.053Z,135.00
2018-08-31T05:54:00.050Z,146.25
2018-08-31T05:56:59.981Z,157.50
2018-08-31T05:59:59.962Z,168.75
2018-08-31T06:02:59.927Z,180.00
2018-08-31T06:05:59.887Z,196.88
2018-08-31T06:08:59.828Z,208.12
2018-08-31T06:11:59.917Z,225.00
2018-08-31T06:14:59.776Z,241.88
2018-08-31T06:17:59.746Z,258.75
2018-08-31T06:20:59.738Z,253.12
2018-08-31T06:23:59.692Z,270.00
2018-08-31T06:27:00.518Z,298.12
2018-08-31T06:30:00.581Z,320.62
2018-08-31T06:32:59.552Z,337.50
2018-08-31T06:35:59.548Z,354.38
2018-08-31T06:38:59.471Z,388.12
2018-08-31T06:41:59.442Z,410.62
2018-08-31T06:44:59.389Z,433.12
2018-08-31T06:47:59.364Z,450.00
2018-08-31T06:50:59.330Z,455.62
2018-08-31T06:53:59.337Z,472.50
2018-08-31T06:56:59.267Z,489.38
2018-08-31T07:00:00.981Z,511.88
2018-08-31T07:02:59.194Z,556.88
2018-08-31T07:06:00.955Z,573.75
2018-08-31T07:08:59.112Z,624.38
2018-08-31T07:11:59.110Z,652.50
2018-08-31T07:14:59.052Z,675.00
2018-08-31T07:17:59.025Z,613.12
2018-08-31T07:20:58.984Z,680.62
2018-08-31T07:23:58.976Z,652.50
2018-08-31T07:26:59.328Z,663.75
2018-08-31T07:29:58.935Z,618.75
2018-08-31T07:32:58.870Z,624.38
2018-08-31T07:35:58.855Z,630.00
2018-08-31T07:38:58.808Z,624.38
2018-08-31T07:41:58.784Z,697.50
2018-08-31T07:44:58.727Z,703.12
2018-08-31T07:47:58.794Z,708.75
2018-08-31T07:50:58.698Z,714.38
2018-08-31T07:53:58.729Z,708.75
2018-08-31T07:56:58.584Z,703.12
2018-08-31T07:59:58.589Z,703.12
2018-08-31T08:02:58.549Z,697.50
2018-08-31T08:05:58.512Z,686.25
2018-08-31T08:08:58.445Z,675.00
2018-08-31T08:11:58.421Z,691.88
2018-08-31T08:14:58.957Z,708.75
2018-08-31T08:17:58.368Z,759.38
2018-08-31T08:20:58.306Z,894.38
2018-08-31T08:23:58.349Z,1198.12
2018-08-31T08:26:58.535Z,1316.25
2018-08-31T08:29:58.247Z,1237.50
2018-08-31T08:32:58.190Z,1316.25
2018-08-31T08:35:58.180Z,1366.88
2018-08-31T08:38:58.162Z,1350.00
2018-08-31T08:41:58.134Z,1293.75
2018-08-31T08:44:58.067Z,1158.75
2018-08-31T08:47:58.048Z,1220.62
2018-08-31T08:50:58.011Z,1198.12
2018-08-31T08:53:57.995Z,1288.12
2018-08-31T08:56:57.952Z,1468.12
2018-08-31T08:59:57.907Z,1603.12
2018-08-31T09:02:57.867Z,1603.12
2018-08-31T09:05:57.847Z,1636.88
2018-08-31T09:08:57.842Z,1749.38
2018-08-31T09:11:57.817Z,1890.00
2018-08-31T09:14:57.772Z,2064.38
2018-08-31T09:17:57.729Z,2137.50
2018-08-31T09:20:57.676Z,2205.00
2018-08-31T09:23:57.691Z,1018.12
2018-08-31T09:26:57.608Z,1676.25
2018-08-31T09:29:58.446Z,2300.62
2018-08-31T09:32:57.571Z,2182.50
2018-08-31T09:35:57.516Z,804.38
2018-08-31T09:38:57.478Z,1957.50
2018-08-31T09:41:57.519Z,2261.25
2018-08-31T09:44:57.473Z,2362.50
2018-08-31T09:47:57.493Z,978.75
2018-08-31T09:50:57.346Z,1243.12
2018-08-31T09:53:57.353Z,1001.25
2018-08-31T09:56:57.942Z,1175.62
2018-08-31T09:59:57.289Z,888.75
2018-08-31T10:02:57.228Z,928.12
2018-08-31T10:05:57.224Z,2160.00
2018-08-31T10:08:57.168Z,2525.62
2018-08-31T10:11:57.147Z,2559.38
2018-08-31T10:14:57.136Z,1068.75
2018-08-31T10:17:57.105Z,2694.38
2018-08-31T10:20:57.044Z,2626.88
2018-08-31T10:23:57.012Z,2671.88
2018-08-31T10:26:57.003Z,1074.38
2018-08-31T10:29:56.956Z,2671.88
2018-08-31T10:32:56.907Z,978.75
2018-08-31T10:35:57.459Z,990.00
2018-08-31T10:38:56.833Z,984.38
2018-08-31T10:41:56.814Z,894.38
2018-08-31T10:44:56.779Z,922.50
2018-08-31T10:47:56.765Z,1018.12
2018-08-31T10:50:56.702Z,2323.12
2018-08-31T10:53:56.728Z,1878.75
2018-08-31T10:56:56.633Z,2368.12
2018-08-31T10:59:56.635Z,2458.12
2018-08-31T11:02:56.587Z,2446.88
2018-08-31T11:05:56.562Z,2311.88
2018-08-31T11:08:56.534Z,2300.62
2018-08-31T11:11:56.501Z,2328.75
2018-08-31T11:14:56.466Z,2390.62
2018-08-31T11:17:56.435Z,2278.12
2018-08-31T11:20:56.480Z,2289.38
2018-08-31T11:23:56.367Z,2328.75
2018-08-31T11:26:56.329Z,2233.12
2018-08-31T11:29:56.342Z,2221.88
2018-08-31T11:32:56.263Z,2266.88
2018-08-31T11:35:56.254Z,2126.25
2018-08-31T11:38:56.227Z,995.62
2018-08-31T11:41:56.199Z,1119.38
2018-08-31T11:44:56.165Z,1170.00
2018-08-31T11:47:56.197Z,2610.00
2018-08-31T11:50:56.095Z,2514.38
2018-08-31T11:53:56.065Z,2233.12
2018-08-31T11:56:56.048Z,2340.00
2018-08-31T11:59:56.019Z,2064.38
2018-08-31T12:02:55.981Z,1929.38
2018-08-31T12:05:55.955Z,1771.88
2018-08-31T12:08:55.902Z,1783.12
2018-08-31T12:11:55.911Z,1665.00
2018-08-31T12:14:55.938Z,1681.88
2018-08-31T12:17:55.835Z,1805.62
2018-08-31T12:20:55.836Z,1895.62
2018-08-31T12:23:55.787Z,2053.12
2018-08-31T12:26:55.708Z,2025.00
2018-08-31T12:29:55.722Z,2086.88
2018-08-31T12:32:55.654Z,2323.12
2018-08-31T12:35:55.691Z,2379.38
2018-08-31T12:38:55.590Z,877.50
2018-08-31T12:41:55.667Z,843.75
2018-08-31T12:44:55.532Z,2176.88
2018-08-31T12:48:04.075Z,2306.25
2018-08-31T12:50:55.557Z,2244.38
2018-08-31T12:53:55.588Z,2289.38
2018-08-31T12:56:55.580Z,2356.88
2018-08-31T12:59:55.531Z,2103.75
2018-08-31T13:02:55.441Z,2103.75
2018-08-31T13:05:55.470Z,871.88
2018-08-31T13:08:55.281Z,793.12
2018-08-31T13:11:55.336Z,804.38
2018-08-31T13:14:55.230Z,798.75
2018-08-31T13:17:55.228Z,838.12
2018-08-31T13:20:55.145Z,866.25
2018-08-31T13:23:55.118Z,911.25
2018-08-31T13:28:05.451Z,1721.25
2018-08-31T13:31:05.492Z,1980.00
2018-08-31T13:34:05.378Z,1929.38
2018-08-31T13:37:05.359Z,1102.50
2018-08-31T13:40:05.358Z,1850.62
2018-08-31T13:43:05.297Z,1777.50
2018-08-31T13:46:05.356Z,1676.25
2018-08-31T13:49:05.247Z,1305.00
2018-08-31T13:52:05.214Z,1023.75
2018-08-31T13:55:05.190Z,1001.25
2018-08-31T13:58:05.168Z,1001.25
2018-08-31T14:01:05.108Z,1136.25
2018-08-31T14:04:05.090Z,1501.88
2018-08-31T14:07:06.123Z,1580.62
2018-08-31T14:10:05.002Z,1670.62
2018-08-31T14:13:04.974Z,1822.50
2018-08-31T14:16:04.948Z,1816.88
2018-08-31T14:19:04.932Z,1749.38
2018-08-31T14:22:04.881Z,1726.88
2018-08-31T14:25:04.846Z,1665.00
2018-08-31T14:28:04.816Z,1631.25
2018-08-31T14:31:04.797Z,1614.38
2018-08-31T14:34:04.756Z,1715.62
2018-08-31T14:37:05.520Z,1721.25
2018-08-31T14:40:04.697Z,1704.38
2018-08-31T14:43:04.677Z,1732.50
2018-08-31T14:46:04.628Z,1614.38
2018-08-31T14:49:04.622Z,1603.12
2018-08-31T14:52:04.560Z,1535.62
2018-08-31T14:55:04.597Z,1237.50
2018-08-31T14:58:04.538Z,1276.88
2018-08-31T15:01:04.499Z,1215.00
2018-08-31T15:04:04.581Z,1344.38
2018-08-31T15:07:04.423Z,1423.12
2018-08-31T15:10:04.379Z,1451.25
2018-08-31T15:13:04.422Z,1468.12
2018-08-31T15:16:04.357Z,1383.75
2018-08-31T15:19:04.301Z,1333.12
2018-08-31T15:22:04.257Z,635.62
2018-08-31T15:25:04.275Z,562.50
2018-08-31T15:28:04.194Z,540.00
2018-08-31T15:31:04.174Z,545.62
2018-08-31T15:34:04.152Z,545.62
2018-08-31T15:37:04.099Z,540.00
2018-08-31T15:40:04.066Z,528.75
2018-08-31T15:43:04.053Z,500.62
2018-08-31T15:46:03.988Z,461.25
2018-08-31T15:49:03.969Z,455.62
2018-08-31T15:52:03.962Z,461.25
2018-08-31T15:55:03.917Z,461.25
2018-08-31T15:58:03.867Z,618.75
2018-08-31T16:01:03.840Z,613.12
2018-08-31T16:04:03.812Z,641.25
2018-08-31T16:07:03.790Z,658.12
2018-08-31T16:10:03.741Z,641.25
2018-08-31T16:13:03.715Z,641.25
2018-08-31T16:16:03.674Z,641.25
2018-08-31T16:19:03.777Z,613.12
2018-08-31T16:22:03.607Z,613.12
2018-08-31T16:25:03.574Z,607.50
2018-08-31T16:28:03.578Z,562.50
2018-08-31T16:31:03.522Z,433.12
2018-08-31T16:34:03.473Z,528.75
2018-08-31T16:37:03.524Z,528.75
2018-08-31T16:40:03.416Z,371.25
2018-08-31T16:43:03.405Z,534.38
2018-08-31T16:46:03.333Z,562.50
2018-08-31T16:49:03.361Z,568.12
2018-08-31T16:52:03.274Z,540.00
2018-08-31T16:55:03.284Z,556.88
2018-08-31T16:58:03.206Z,461.25
2018-08-31T17:01:03.204Z,438.75
2018-08-31T17:04:03.155Z,405.00
2018-08-31T17:07:03.402Z,410.62
2018-08-31T17:10:03.097Z,388.12
2018-08-31T17:13:03.082Z,365.62
2018-08-31T17:16:03.013Z,343.12
2018-08-31T17:19:03.019Z,320.62
2018-08-31T17:22:02.948Z,303.75
2018-08-31T17:25:02.931Z,275.62
2018-08-31T17:28:02.900Z,258.75
2018-08-31T17:31:02.882Z,236.25
2018-08-31T17:34:02.817Z,208.12
2018-08-31T17:37:02.787Z,202.50
2018-08-31T17:40:02.745Z,185.62
2018-08-31T17:43:02.732Z,168.75
2018-08-31T17:46:02.669Z,151.88
2018-08-31T17:49:02.655Z,140.62
2018-08-31T17:52:02.642Z,112.50
2018-08-31T17:55:02.614Z,101.25
2018-08-31T17:58:02.561Z,90.00
2018-08-31T18:01:02.533Z,78.75
2018-08-31T18:04:02.556Z,67.50
2018-08-31T18:07:02.447Z,61.88
2018-08-31T18:10:02.399Z,50.62
2018-08-31T18:13:02.409Z,45.00
2018-08-31T18:16:02.468Z,33.75
2018-08-31T18:19:02.350Z,28.12
2018-08-31T18:22:02.261Z,22.50
2018-08-31T18:25:02.245Z,16.88
2018-08-31T18:28:03.278Z,11.25
2018-08-31T18:31:02.287Z,5.62
2018-08-31T18:34:02.209Z,5.62
2018-08-31T18:37:02.155Z,0.00
2018-08-31T18:40:02.226Z,0.00
2018-08-31T18:43:02.034Z,0.00
2018-08-31T18:46:02.052Z,0.00
2018-08-31T18:49:01.983Z,0.00
2018-08-31T18:52:01.995Z,0.00
2018-08-31T18:55:01.980Z,0.00
2018-08-31T18:58:02.007Z,0.00
2018-08-31T19:01:01.835Z,0.00
2018-08-31T19:04:01.871Z,0.00
2018-08-31T19:07:01.819Z,0.00
2018-08-31T19:10:01.785Z,0.00
2018-08-31T19:13:01.813Z,0.00
2018-08-31T19:16:01.671Z,0.00
2018-08-31T19:19:01.656Z,0.00
2018-08-31T19:22:01.584Z,0.00
2018-08-31T19:25:01.585Z,0.00
2018-08-31T19:28:01.556Z,0.00
2018-08-31T19:31:01.522Z,0.00
2018-08-31T19:34:01.485Z,0.00
2018-08-31T19:37:01.455Z,0.00
2018-08-31T19:40:01.377Z,0.00
2018-08-31T19:43:01.365Z,0.00
2018-08-31T19:46:01.303Z,0.00
2018-08-31T19:49:01.324Z,0.00
2018-08-31T19:52:01.262Z,0.00
2018-08-31T19:55:01.252Z,0.00
2018-08-31T19:58:01.176Z,0.00
2018-08-31T20:01:01.177Z,0.00
2018-08-31T20:04:01.121Z,0.00
2018-08-31T20:07:01.136Z,0.00
2018-08-31T20:10:01.050Z,0.00
2018-08-31T20:13:01.016Z,0.00
2018-08-31T20:16:00.992Z,0.00
2018-08-31T20:19:00.950Z,0.00
2018-08-31T20:22:00.929Z,0.00
2018-08-31T20:25:00.875Z,0.00
2018-08-31T20:28:00.849Z,0.00
2018-08-31T20:31:00.900Z,0.00
2018-08-31T20:34:00.764Z,0.00
2018-08-31T20:37:00.753Z,0.00
2018-08-31T20:40:00.697Z,0.00
2018-08-31T20:43:00.678Z,0.00
2018-08-31T20:46:00.661Z,0.00
2018-08-31T20:49:00.638Z,0.00
2018-08-31T20:52:00.556Z,0.00
2018-08-31T20:55:00.548Z,0.00
2018-08-31T20:58:00.499Z,0.00
2018-08-31T21:01:00.494Z,0.00
2018-08-31T21:04:00.418Z,0.00
2018-08-31T21:07:00.459Z,0.00
2018-08-31T21:10:00.353Z,0.00
2018-08-31T21:13:00.334Z,0.00
2018-08-31T21:16:00.303Z,0.00
2018-08-31T21:19:00.286Z,0.00
2018-08-31T21:22:00.240Z,0.00
2018-08-31T21:25:00.199Z,0.00
2018-08-31T21:28:00.165Z,0.00
2018-08-31T21:31:00.145Z,0.00
2018-08-31T21:34:00.085Z,0.00
2018-08-31T21:37:00.061Z,0.00
2018-08-31T21:40:00.004Z,0.00
2018-08-31T21:43:00.002Z,0.00
2018-08-31T21:45:59.948Z,0.00
2018-08-31T21:48:59.944Z,0.00
2018-08-31T21:51:59.869Z,0.00
2018-08-31T21:54:59.876Z,0.00
2018-08-31T21:57:59.812Z,0.00
2018-08-31T22:00:59.802Z,0.00
2018-08-31T22:03:59.741Z,0.00
2018-08-31T22:06:59.715Z,0.00
2018-08-31T22:09:59.686Z,0.00
2018-08-31T22:12:59.634Z,0.00
2018-08-31T22:15:59.604Z,0.00
2018-08-31T22:18:59.631Z,0.00
2018-08-31T22:21:59.539Z,0.00
2018-08-31T22:24:59.518Z,0.00
2018-08-31T22:28:07.562Z,0.00
2018-08-31T22:30:59.469Z,0.00
2018-08-31T22:33:59.400Z,0.00
2018-08-31T22:36:59.374Z,0.00
2018-08-31T22:39:59.319Z,0.00
2018-08-31T22:42:59.338Z,0.00
2018-08-31T22:45:59.265Z,0.00
2018-08-31T22:48:59.226Z,0.00
2018-08-31T22:51:59.186Z,0.00
2018-08-31T22:54:59.172Z,0.00
2018-08-31T22:57:59.144Z,0.00
2018-08-31T23:00:59.129Z,0.00
2018-08-31T23:03:59.061Z,0.00
2018-08-31T23:06:59.062Z,0.00
2018-08-31T23:09:59.537Z,0.00
2018-08-31T23:12:59.059Z,0.00
2018-08-31T23:15:58.907Z,0.00
2018-08-31T23:18:58.933Z,0.00
2018-08-31T23:21:58.850Z,0.00
2018-08-31T23:24:58.832Z,0.00
2018-08-31T23:27:58.780Z,0.00
2018-08-31T23:30:58.748Z,0.00
2018-08-31T23:33:58.711Z,0.00
2018-08-31T23:36:59.017Z,0.00
2018-08-31T23:39:58.632Z,0.00
2018-08-31T23:42:58.626Z,0.00
2018-08-31T23:45:58.574Z,0.00
2018-08-31T23:48:58.577Z,0.00
2018-08-31T23:51:58.511Z,0.00
2018-08-31T23:54:58.490Z,0.00
2018-08-31T23:57:58.458Z,0.00
